Not for real navigation | The accuracy of this data is not assured | See disclaimer for more information
ICAO NAME COUNTRY WIND Kt GUST Kt VIS TEMP/DEW BARO
KCVX Charlevoix, Charlevoix Municip MI United States 4 0 9999 -16/-25 30.02
KCVX 261636Z AUTO 23004KT 10SM CAVOK M16/M25 A3002 RMK AO2 T11631252
CYBK Baker Lake, N. W. T. Canada 10 0 32000 -10/-13 30.07
CYBK 261600Z 31010KT 20SM FEW150 M10/M13 A3007 RMK AC1 AC TR SLP185
CYHK Gjoa Haven Airport Canada 11 0 24000 -10/-11 29.93
CYHK 261600Z 29011KT 15SM FEW170 M10/M11 A2993 RMK AS2 SLP144
CWIJ Lupin, N. W. T. Canada 3 0 9999 -9/-10 29.92
CWIJ 261600Z AUTO 17003KT M09/M10 RMK AO1 SOG 61 3002 SLP171 T10871095
CYCB Cambridge Bay, N. W. T. Canada 4 0 24000 -9/-11 29.98
CYCB 261600Z 28004KT 15SM FEW003 FEW035 FEW180 M09/M11 A2998 RMK SF1SC1AC2 SF TR SC TR SLP157

Show more